NKS893 TJSJ-KMCO
Flight info
| Callsign | NKS893 |
|---|---|
| Flight time | N/A |
| Altitude | 38000 |
| Route | ACONY3 SAPPO Y280 OCTAL MUNGI1 |
| Aircraft | A20N/M-SDE2E3FGHIRWXY/LB1 |
Departure
| Time | N/A |
|---|---|
| Airport | Luis Munoz Marin International Airport (TJSJ) |
Arrival
| Time | 2026-04-23 03:04 |
|---|---|
| Airport | Orlando International Airport (KMCO) |
| Time | Latitude | Longitude | Altitude | Speed | Heading |
|---|---|---|---|---|---|
| 2026-04-23 00:42 | 21.07869 | -69.49775 | 38024 ft | 387 kts | 296° |
| 2026-04-23 00:43 | 21.10701 | -69.54675 | 38029 ft | 387 kts | 296° |
| 2026-04-23 00:43 | 21.13513 | -69.59544 | 38029 ft | 387 kts | 296° |
| 2026-04-23 00:44 | 21.16349 | -69.64457 | 38036 ft | 388 kts | 296° |
| 2026-04-23 00:44 | 21.19181 | -69.69370 | 38031 ft | 387 kts | 296° |
| 2026-04-23 00:45 | 21.22012 | -69.74284 | 38032 ft | 388 kts | 296° |
| 2026-04-23 00:45 | 21.24813 | -69.79151 | 38017 ft | 385 kts | 296° |
| 2026-04-23 00:46 | 21.27618 | -69.84038 | 38018 ft | 385 kts | 296° |
| 2026-04-23 00:46 | 21.30429 | -69.88934 | 38017 ft | 385 kts | 296° |
| 2026-04-23 00:47 | 21.33238 | -69.93828 | 38018 ft | 385 kts | 296° |
| 2026-04-23 00:47 | 21.36026 | -69.98687 | 38015 ft | 385 kts | 296° |
| 2026-04-23 00:48 | 21.38831 | -70.03580 | 38025 ft | 384 kts | 296° |
| 2026-04-23 00:48 | 21.41628 | -70.08468 | 38025 ft | 384 kts | 296° |
| 2026-04-23 00:49 | 21.44423 | -70.13356 | 38025 ft | 384 kts | 296° |
| 2026-04-23 00:49 | 21.47218 | -70.18246 | 38026 ft | 385 kts | 296° |
| 2026-04-23 00:50 | 21.49993 | -70.23109 | 38034 ft | 384 kts | 296° |
| 2026-04-23 00:50 | 21.52784 | -70.28002 | 38033 ft | 384 kts | 296° |
| 2026-04-23 00:51 | 21.55568 | -70.32889 | 38032 ft | 384 kts | 296° |
| 2026-04-23 00:51 | 21.58353 | -70.37783 | 38032 ft | 384 kts | 296° |
| 2026-04-23 00:52 | 21.61113 | -70.42639 | 38030 ft | 383 kts | 296° |
| 2026-04-23 00:52 | 21.63894 | -70.47530 | 38032 ft | 383 kts | 296° |
| 2026-04-23 00:53 | 21.66669 | -70.52419 | 38026 ft | 384 kts | 296° |
| 2026-04-23 00:53 | 21.69447 | -70.57314 | 38025 ft | 383 kts | 296° |
| 2026-04-23 00:54 | 21.72224 | -70.62212 | 38026 ft | 383 kts | 296° |
| 2026-04-23 00:54 | 21.74976 | -70.67075 | 38025 ft | 383 kts | 296° |
| 2026-04-23 00:55 | 21.77747 | -70.71974 | 38026 ft | 383 kts | 296° |
| 2026-04-23 00:55 | 21.80514 | -70.76869 | 38039 ft | 383 kts | 296° |
| 2026-04-23 00:56 | 21.83273 | -70.81761 | 38047 ft | 382 kts | 296° |
| 2026-04-23 00:56 | 21.86034 | -70.86653 | 38048 ft | 383 kts | 296° |
| 2026-04-23 00:57 | 21.88794 | -70.91550 | 38052 ft | 383 kts | 296° |
| 2026-04-23 00:57 | 21.91535 | -70.96415 | 38053 ft | 383 kts | 296° |
| 2026-04-23 00:58 | 21.94294 | -71.01317 | 38054 ft | 383 kts | 296° |
| 2026-04-23 00:58 | 21.97051 | -71.06220 | 38049 ft | 383 kts | 296° |
| 2026-04-23 00:59 | 21.99809 | -71.11135 | 38056 ft | 383 kts | 296° |
| 2026-04-23 00:59 | 22.02555 | -71.16029 | 38054 ft | 379 kts | 296° |
| 2026-04-23 01:00 | 22.05278 | -71.20884 | 38055 ft | 379 kts | 296° |
| 2026-04-23 01:00 | 22.07988 | -71.25725 | 38055 ft | 379 kts | 296° |
| 2026-04-23 01:01 | 22.10710 | -71.30589 | 38054 ft | 379 kts | 296° |
| 2026-04-23 01:01 | 22.13430 | -71.35453 | 38055 ft | 379 kts | 296° |
| 2026-04-23 01:02 | 22.16149 | -71.40324 | 38055 ft | 379 kts | 296° |
| 2026-04-23 01:02 | 22.18849 | -71.45162 | 38052 ft | 379 kts | 296° |
| 2026-04-23 01:03 | 22.21566 | -71.50037 | 38050 ft | 379 kts | 296° |
| 2026-04-23 01:03 | 22.24282 | -71.54912 | 38051 ft | 379 kts | 296° |
| 2026-04-23 01:04 | 22.26996 | -71.59790 | 38051 ft | 379 kts | 296° |
| 2026-04-23 01:04 | 22.31071 | -71.67120 | 38054 ft | 379 kts | 296° |
| 2026-04-23 01:05 | 22.33784 | -71.72008 | 38056 ft | 380 kts | 296° |
| 2026-04-23 01:05 | 22.36483 | -71.76876 | 38058 ft | 380 kts | 296° |
| 2026-04-23 01:06 | 22.39199 | -71.81776 | 38058 ft | 380 kts | 296° |
| 2026-04-23 01:06 | 22.41913 | -71.86679 | 38060 ft | 380 kts | 296° |
| 2026-04-23 01:07 | 22.44626 | -71.91585 | 38062 ft | 381 kts | 296° |
| 2026-04-23 01:07 | 22.47322 | -71.96465 | 38063 ft | 381 kts | 296° |
| 2026-04-23 01:08 | 22.50037 | -72.01381 | 38061 ft | 380 kts | 296° |
| 2026-04-23 01:08 | 22.52744 | -72.06287 | 38062 ft | 380 kts | 296° |
| 2026-04-23 01:09 | 22.55448 | -72.11195 | 38059 ft | 379 kts | 296° |
| 2026-04-23 01:09 | 22.58146 | -72.16094 | 38057 ft | 379 kts | 296° |
| 2026-04-23 01:10 | 22.60824 | -72.20963 | 38058 ft | 379 kts | 296° |
| 2026-04-23 01:10 | 22.63513 | -72.25860 | 38066 ft | 378 kts | 296° |
| 2026-04-23 01:11 | 22.66198 | -72.30753 | 38064 ft | 378 kts | 296° |
| 2026-04-23 01:11 | 22.68870 | -72.35645 | 38061 ft | 377 kts | 295° |
| 2026-04-23 01:12 | 22.71545 | -72.40534 | 38060 ft | 377 kts | 296° |
| 2026-04-23 01:12 | 22.74203 | -72.45386 | 38064 ft | 377 kts | 296° |
| 2026-04-23 01:13 | 22.76875 | -72.50267 | 38071 ft | 377 kts | 296° |
| 2026-04-23 01:13 | 22.79540 | -72.55146 | 38072 ft | 376 kts | 296° |
| 2026-04-23 01:14 | 22.82206 | -72.60025 | 38072 ft | 376 kts | 296° |
| 2026-04-23 01:14 | 22.84851 | -72.64873 | 38071 ft | 376 kts | 296° |
| 2026-04-23 01:15 | 22.87510 | -72.69752 | 38078 ft | 376 kts | 296° |
| 2026-04-23 01:15 | 22.90167 | -72.74633 | 38079 ft | 376 kts | 296° |
| 2026-04-23 01:16 | 22.92823 | -72.79513 | 38079 ft | 376 kts | 296° |
| 2026-04-23 01:16 | 22.95480 | -72.84399 | 38090 ft | 376 kts | 296° |
| 2026-04-23 01:17 | 22.98117 | -72.89250 | 38095 ft | 376 kts | 296° |
| 2026-04-23 01:17 | 23.00766 | -72.94141 | 38097 ft | 376 kts | 296° |
| 2026-04-23 01:18 | 23.03411 | -72.99029 | 38101 ft | 375 kts | 296° |
| 2026-04-23 01:18 | 23.06058 | -73.03915 | 38101 ft | 376 kts | 296° |
| 2026-04-23 01:19 | 23.08703 | -73.08810 | 38111 ft | 375 kts | 296° |
| 2026-04-23 01:19 | 23.11344 | -73.13699 | 38112 ft | 375 kts | 296° |
| 2026-04-23 01:20 | 23.13967 | -73.18561 | 38112 ft | 375 kts | 295° |
| 2026-04-23 01:20 | 23.16604 | -73.23454 | 38117 ft | 375 kts | 295° |
| 2026-04-23 01:21 | 23.19239 | -73.28347 | 38126 ft | 374 kts | 296° |
| 2026-04-23 01:21 | 23.21867 | -73.33229 | 38130 ft | 374 kts | 296° |
| 2026-04-23 01:22 | 23.24490 | -73.38111 | 38128 ft | 374 kts | 296° |
| 2026-04-23 01:22 | 23.27093 | -73.42958 | 38137 ft | 374 kts | 295° |
| 2026-04-23 01:23 | 23.29712 | -73.47840 | 38146 ft | 373 kts | 295° |
| 2026-04-23 01:23 | 23.32327 | -73.52722 | 38133 ft | 373 kts | 295° |
| 2026-04-23 01:24 | 23.34937 | -73.57594 | 38147 ft | 373 kts | 295° |
| 2026-04-23 01:24 | 23.37524 | -73.62433 | 38141 ft | 372 kts | 295° |
| 2026-04-23 01:25 | 23.40124 | -73.67298 | 38157 ft | 371 kts | 296° |
| 2026-04-23 01:25 | 23.42717 | -73.72153 | 38156 ft | 371 kts | 296° |
| 2026-04-23 01:26 | 23.45306 | -73.77008 | 38152 ft | 370 kts | 295° |
| 2026-04-23 01:26 | 23.47892 | -73.81859 | 38155 ft | 370 kts | 295° |
| 2026-04-23 01:27 | 23.50454 | -73.86673 | 38164 ft | 370 kts | 295° |
| 2026-04-23 01:27 | 23.53030 | -73.91520 | 38160 ft | 370 kts | 295° |
| 2026-04-23 01:28 | 23.55605 | -73.96365 | 38166 ft | 369 kts | 295° |
| 2026-04-23 01:28 | 23.58177 | -74.01209 | 38173 ft | 369 kts | 295° |
| 2026-04-23 01:29 | 23.60738 | -74.06052 | 38175 ft | 369 kts | 295° |
| 2026-04-23 01:29 | 23.63287 | -74.10866 | 38173 ft | 369 kts | 295° |
| 2026-04-23 01:30 | 23.65853 | -74.15711 | 38174 ft | 369 kts | 295° |
| 2026-04-23 01:30 | 23.68417 | -74.20559 | 38173 ft | 369 kts | 295° |
| 2026-04-23 01:31 | 23.70979 | -74.25411 | 38174 ft | 369 kts | 295° |
| 2026-04-23 01:31 | 23.73537 | -74.30261 | 38180 ft | 369 kts | 295° |
| 2026-04-23 01:32 | 23.76076 | -74.35077 | 38181 ft | 369 kts | 295° |
| 2026-04-23 01:32 | 23.78634 | -74.39932 | 38183 ft | 369 kts | 295° |
| 2026-04-23 01:33 | 23.81189 | -74.44790 | 38183 ft | 369 kts | 295° |
| 2026-04-23 01:33 | 23.83742 | -74.49650 | 38173 ft | 369 kts | 295° |
| 2026-04-23 01:34 | 23.86280 | -74.54485 | 38177 ft | 370 kts | 295° |
| 2026-04-23 01:34 | 23.88836 | -74.59360 | 38179 ft | 370 kts | 295° |
| 2026-04-23 01:35 | 23.91391 | -74.64238 | 38182 ft | 370 kts | 295° |
| 2026-04-23 01:35 | 23.93949 | -74.69125 | 38183 ft | 370 kts | 295° |
| 2026-04-23 01:36 | 23.96491 | -74.73986 | 38185 ft | 371 kts | 295° |
| 2026-04-23 01:36 | 23.99052 | -74.78890 | 38186 ft | 372 kts | 295° |
| 2026-04-23 01:37 | 24.01614 | -74.83802 | 38183 ft | 369 kts | 295° |
| 2026-04-23 01:37 | 24.04142 | -74.88645 | 38186 ft | 367 kts | 295° |
| 2026-04-23 01:38 | 24.06673 | -74.93512 | 38183 ft | 368 kts | 295° |
| 2026-04-23 01:38 | 24.09184 | -74.98339 | 38184 ft | 368 kts | 295° |
| 2026-04-23 01:39 | 24.11713 | -75.03203 | 38184 ft | 368 kts | 295° |
| 2026-04-23 01:39 | 24.14237 | -75.08068 | 38182 ft | 367 kts | 295° |
| 2026-04-23 01:40 | 24.16758 | -75.12928 | 38185 ft | 367 kts | 295° |
| 2026-04-23 01:40 | 24.19260 | -75.17756 | 38186 ft | 367 kts | 295° |
| 2026-04-23 01:41 | 24.21776 | -75.22615 | 38185 ft | 367 kts | 295° |
| 2026-04-23 01:41 | 24.24291 | -75.27478 | 38184 ft | 367 kts | 295° |
| 2026-04-23 01:42 | 24.26804 | -75.32347 | 38187 ft | 367 kts | 295° |
| 2026-04-23 01:42 | 24.29318 | -75.37219 | 38187 ft | 367 kts | 295° |
| 2026-04-23 01:43 | 24.31814 | -75.42057 | 38186 ft | 367 kts | 295° |
| 2026-04-23 01:43 | 24.34327 | -75.46936 | 38188 ft | 367 kts | 295° |
| 2026-04-23 01:44 | 24.36831 | -75.51818 | 38188 ft | 366 kts | 292° |
| 2026-04-23 01:44 | 24.38896 | -75.56891 | 38183 ft | 364 kts | 290° |
| 2026-04-23 01:45 | 24.40917 | -75.61942 | 38179 ft | 364 kts | 290° |
| 2026-04-23 01:45 | 24.42951 | -75.67019 | 38179 ft | 363 kts | 290° |
| 2026-04-23 01:46 | 24.44986 | -75.72098 | 38179 ft | 363 kts | 290° |
| 2026-04-23 01:46 | 24.47018 | -75.77178 | 38179 ft | 364 kts | 290° |
| 2026-04-23 01:47 | 24.49048 | -75.82262 | 38181 ft | 363 kts | 290° |
| 2026-04-23 01:47 | 24.51063 | -75.87311 | 38181 ft | 364 kts | 290° |
| 2026-04-23 01:48 | 24.53089 | -75.92403 | 38183 ft | 364 kts | 290° |
| 2026-04-23 01:48 | 24.55115 | -75.97494 | 38183 ft | 364 kts | 290° |
| 2026-04-23 01:49 | 24.57139 | -76.02587 | 38183 ft | 364 kts | 290° |
| 2026-04-23 01:49 | 24.59162 | -76.07683 | 38183 ft | 364 kts | 290° |
| 2026-04-23 01:50 | 24.61170 | -76.12747 | 38184 ft | 364 kts | 290° |
| 2026-04-23 01:50 | 24.63187 | -76.17845 | 38183 ft | 364 kts | 290° |
| 2026-04-23 01:51 | 24.65205 | -76.22949 | 38185 ft | 364 kts | 290° |
| 2026-04-23 01:51 | 24.67223 | -76.28056 | 38188 ft | 364 kts | 290° |
| 2026-04-23 01:52 | 24.69239 | -76.33166 | 38186 ft | 364 kts | 290° |
| 2026-04-23 01:52 | 24.71250 | -76.38274 | 38186 ft | 364 kts | 290° |
| 2026-04-23 01:53 | 24.73248 | -76.43351 | 38186 ft | 364 kts | 290° |
| 2026-04-23 01:53 | 24.75260 | -76.48466 | 38186 ft | 364 kts | 290° |
| 2026-04-23 01:54 | 24.77268 | -76.53580 | 38186 ft | 364 kts | 290° |
| 2026-04-23 01:54 | 24.79274 | -76.58696 | 38187 ft | 364 kts | 290° |
| 2026-04-23 01:55 | 24.81265 | -76.63778 | 38185 ft | 364 kts | 289° |
| 2026-04-23 01:55 | 24.83267 | -76.68894 | 38181 ft | 364 kts | 289° |
| 2026-04-23 01:56 | 24.85265 | -76.74008 | 38181 ft | 364 kts | 289° |
| 2026-04-23 01:56 | 24.87261 | -76.79123 | 38180 ft | 363 kts | 289° |
| 2026-04-23 01:57 | 24.89243 | -76.84204 | 38180 ft | 363 kts | 289° |
| 2026-04-23 01:57 | 24.91233 | -76.89315 | 38178 ft | 363 kts | 289° |
| 2026-04-23 01:58 | 24.93223 | -76.94429 | 38180 ft | 363 kts | 289° |
| 2026-04-23 01:58 | 24.95213 | -76.99549 | 38181 ft | 364 kts | 289° |
| 2026-04-23 01:59 | 24.97199 | -77.04672 | 38182 ft | 364 kts | 289° |
| 2026-04-23 01:59 | 24.99175 | -77.09770 | 38186 ft | 364 kts | 289° |
| 2026-04-23 02:00 | 25.01162 | -77.14905 | 38185 ft | 364 kts | 289° |
| 2026-04-23 02:00 | 25.03147 | -77.20038 | 38194 ft | 364 kts | 289° |
| 2026-04-23 02:01 | 25.05132 | -77.25177 | 38196 ft | 364 kts | 289° |
| 2026-04-23 02:01 | 25.07100 | -77.30280 | 38196 ft | 364 kts | 289° |
| 2026-04-23 02:02 | 25.09080 | -77.35422 | 38197 ft | 364 kts | 289° |
| 2026-04-23 02:02 | 25.11060 | -77.40569 | 38198 ft | 364 kts | 289° |
| 2026-04-23 02:03 | 25.13039 | -77.45717 | 38197 ft | 364 kts | 289° |
| 2026-04-23 02:03 | 25.15014 | -77.50866 | 38197 ft | 364 kts | 289° |
| 2026-04-23 02:04 | 25.16975 | -77.55982 | 38196 ft | 364 kts | 289° |
| 2026-04-23 02:04 | 25.18945 | -77.61130 | 38194 ft | 364 kts | 289° |
| 2026-04-23 02:05 | 25.20914 | -77.66274 | 38193 ft | 364 kts | 289° |
| 2026-04-23 02:05 | 25.22884 | -77.71431 | 38190 ft | 364 kts | 289° |
| 2026-04-23 02:06 | 25.24835 | -77.76548 | 38192 ft | 364 kts | 289° |
| 2026-04-23 02:06 | 25.26797 | -77.81699 | 38196 ft | 364 kts | 289° |
| 2026-04-23 02:07 | 25.28756 | -77.86847 | 38197 ft | 363 kts | 289° |
| 2026-04-23 02:07 | 25.30711 | -77.91993 | 38195 ft | 363 kts | 289° |
| 2026-04-23 02:08 | 25.32650 | -77.97097 | 38193 ft | 363 kts | 289° |
| 2026-04-23 02:08 | 25.34598 | -78.02237 | 38188 ft | 362 kts | 289° |
| 2026-04-23 02:09 | 25.36540 | -78.07367 | 38187 ft | 362 kts | 289° |
| 2026-04-23 02:09 | 25.38482 | -78.12498 | 38185 ft | 362 kts | 289° |
| 2026-04-23 02:10 | 25.40407 | -78.17593 | 38184 ft | 362 kts | 289° |
| 2026-04-23 02:10 | 25.42343 | -78.22727 | 38188 ft | 362 kts | 289° |
| 2026-04-23 02:11 | 25.44279 | -78.27864 | 38190 ft | 361 kts | 289° |
| 2026-04-23 02:11 | 25.46211 | -78.32993 | 38182 ft | 361 kts | 289° |
| 2026-04-23 02:12 | 25.48127 | -78.38096 | 38182 ft | 362 kts | 289° |
| 2026-04-23 02:12 | 25.50059 | -78.43244 | 38178 ft | 362 kts | 289° |
| 2026-04-23 02:13 | 25.51989 | -78.48393 | 38180 ft | 362 kts | 289° |
| 2026-04-23 02:13 | 25.53919 | -78.53546 | 38183 ft | 362 kts | 289° |
| 2026-04-23 02:14 | 25.55834 | -78.58667 | 38182 ft | 362 kts | 289° |
| 2026-04-23 02:14 | 25.57761 | -78.63825 | 38182 ft | 363 kts | 289° |
| 2026-04-23 02:15 | 25.60648 | -78.71564 | 38189 ft | 362 kts | 288° |
| 2026-04-23 02:16 | 25.62570 | -78.76731 | 38182 ft | 363 kts | 288° |
| 2026-04-23 02:16 | 25.64479 | -78.81866 | 38184 ft | 363 kts | 288° |
| 2026-04-23 02:17 | 25.66403 | -78.87045 | 38188 ft | 363 kts | 288° |
| 2026-04-23 02:17 | 25.68325 | -78.92224 | 38188 ft | 363 kts | 288° |
| 2026-04-23 02:18 | 25.70246 | -78.97413 | 38190 ft | 364 kts | 288° |
| 2026-04-23 02:18 | 25.72151 | -79.02564 | 38189 ft | 364 kts | 288° |
| 2026-04-23 02:19 | 25.74069 | -79.07751 | 38194 ft | 363 kts | 288° |
| 2026-04-23 02:19 | 25.75983 | -79.12940 | 38193 ft | 363 kts | 288° |
| 2026-04-23 02:20 | 25.77894 | -79.18123 | 38188 ft | 363 kts | 288° |
| 2026-04-23 02:20 | 25.79790 | -79.23274 | 38189 ft | 363 kts | 288° |
| 2026-04-23 02:21 | 25.81696 | -79.28457 | 38193 ft | 362 kts | 288° |
| 2026-04-23 02:21 | 25.83598 | -79.33636 | 38190 ft | 362 kts | 288° |
| 2026-04-23 02:22 | 25.85494 | -79.38809 | 38189 ft | 362 kts | 288° |
| 2026-04-23 02:22 | 25.87374 | -79.43943 | 38182 ft | 361 kts | 288° |
| 2026-04-23 02:23 | 25.89260 | -79.49101 | 38176 ft | 360 kts | 288° |
| 2026-04-23 02:23 | 25.91146 | -79.54260 | 38175 ft | 360 kts | 288° |
| 2026-04-23 02:24 | 25.92711 | -79.58545 | 38173 ft | 360 kts | 288° |
| 2026-04-23 02:24 | 25.94891 | -79.64536 | 38172 ft | 360 kts | 288° |
| 2026-04-23 02:25 | 25.96763 | -79.69684 | 38169 ft | 359 kts | 288° |
| 2026-04-23 02:25 | 25.98636 | -79.74830 | 38169 ft | 359 kts | 288° |
| 2026-04-23 02:26 | 26.00185 | -79.79096 | 38169 ft | 358 kts | 288° |
| 2026-04-23 02:26 | 26.02347 | -79.85070 | 38167 ft | 358 kts | 288° |
| 2026-04-23 02:27 | 26.04207 | -79.90207 | 38159 ft | 358 kts | 288° |
| 2026-04-23 02:27 | 26.05750 | -79.94472 | 38163 ft | 358 kts | 288° |
| 2026-04-23 02:28 | 26.07606 | -79.99615 | 38155 ft | 358 kts | 288° |
| 2026-04-23 02:28 | 26.09460 | -80.04752 | 38168 ft | 358 kts | 288° |
| 2026-04-23 02:29 | 26.11617 | -80.10737 | 38159 ft | 358 kts | 288° |
| 2026-04-23 02:29 | 26.13227 | -80.14983 | 38165 ft | 361 kts | 292° |
| 2026-04-23 02:30 | 26.16195 | -80.19571 | 38161 ft | 374 kts | 307° |
| 2026-04-23 02:30 | 26.20436 | -80.23106 | 38158 ft | 392 kts | 322° |
| 2026-04-23 02:31 | 26.25425 | -80.25716 | 38163 ft | 397 kts | 324° |
| 2026-04-23 02:31 | 26.30435 | -80.28319 | 38166 ft | 398 kts | 324° |
| 2026-04-23 02:32 | 26.35419 | -80.30917 | 38171 ft | 399 kts | 324° |
| 2026-04-23 02:32 | 26.40444 | -80.33541 | 38182 ft | 399 kts | 324° |
| 2026-04-23 02:33 | 26.45487 | -80.36176 | 38075 ft | 400 kts | 324° |
| 2026-04-23 02:33 | 26.48002 | -80.37490 | 37827 ft | 399 kts | 324° |
| 2026-04-23 02:33 | 26.50515 | -80.38804 | 37574 ft | 399 kts | 325° |
| 2026-04-23 02:33 | 26.53035 | -80.40124 | 37315 ft | 402 kts | 325° |
| 2026-04-23 02:34 | 26.55544 | -80.41439 | 36733 ft | 405 kts | 325° |
| 2026-04-23 02:34 | 26.58113 | -80.42788 | 35872 ft | 411 kts | 325° |
| 2026-04-23 02:34 | 26.60708 | -80.44149 | 35178 ft | 412 kts | 325° |
| 2026-04-23 02:34 | 26.63360 | -80.45412 | 34427 ft | 418 kts | 330° |
| 2026-04-23 02:35 | 26.66099 | -80.46531 | 33667 ft | 420 kts | 330° |
| 2026-04-23 02:35 | 26.68813 | -80.47647 | 32857 ft | 423 kts | 331° |
| 2026-04-23 02:35 | 26.71612 | -80.48804 | 32074 ft | 424 kts | 332° |
| 2026-04-23 02:35 | 26.74389 | -80.49949 | 31202 ft | 427 kts | 332° |
| 2026-04-23 02:36 | 26.77175 | -80.51098 | 30405 ft | 428 kts | 333° |
| 2026-04-23 02:36 | 26.79917 | -80.52227 | 29870 ft | 422 kts | 333° |
| 2026-04-23 02:36 | 26.82654 | -80.53355 | 29286 ft | 418 kts | 333° |
| 2026-04-23 02:36 | 26.85368 | -80.54480 | 28705 ft | 414 kts | 333° |
| 2026-04-23 02:37 | 26.88054 | -80.55597 | 28112 ft | 410 kts | 333° |
| 2026-04-23 02:37 | 26.90714 | -80.56701 | 27536 ft | 406 kts | 334° |
| 2026-04-23 02:37 | 26.93349 | -80.57789 | 26968 ft | 402 kts | 334° |
| 2026-04-23 02:37 | 26.95966 | -80.58865 | 26394 ft | 399 kts | 334° |
| 2026-04-23 02:38 | 26.98555 | -80.59934 | 25834 ft | 395 kts | 334° |
| 2026-04-23 02:38 | 27.01085 | -80.60984 | 25273 ft | 392 kts | 335° |
| 2026-04-23 02:38 | 27.03629 | -80.62043 | 24718 ft | 388 kts | 335° |
| 2026-04-23 02:38 | 27.06147 | -80.63093 | 24162 ft | 385 kts | 335° |
| 2026-04-23 02:39 | 27.08642 | -80.64132 | 23610 ft | 381 kts | 335° |
| 2026-04-23 02:39 | 27.11125 | -80.65167 | 23068 ft | 378 kts | 335° |
| 2026-04-23 02:39 | 27.13581 | -80.66197 | 22823 ft | 383 kts | 335° |
| 2026-04-23 02:39 | 27.16133 | -80.67277 | 22583 ft | 397 kts | 335° |
| 2026-04-23 02:40 | 27.18714 | -80.68363 | 22305 ft | 394 kts | 335° |
| 2026-04-23 02:40 | 27.21267 | -80.69432 | 22028 ft | 389 kts | 335° |
| 2026-04-23 02:40 | 27.23762 | -80.70476 | 21760 ft | 387 kts | 335° |
| 2026-04-23 02:40 | 27.26284 | -80.71533 | 21481 ft | 387 kts | 336° |
| 2026-04-23 02:41 | 27.28801 | -80.72588 | 21214 ft | 385 kts | 336° |
| 2026-04-23 02:41 | 27.31308 | -80.73640 | 20943 ft | 384 kts | 335° |
| 2026-04-23 02:41 | 27.33799 | -80.74689 | 20672 ft | 382 kts | 335° |
| 2026-04-23 02:41 | 27.36274 | -80.75731 | 20494 ft | 376 kts | 335° |
| 2026-04-23 02:42 | 27.38702 | -80.76756 | 20118 ft | 370 kts | 335° |
| 2026-04-23 02:42 | 27.41074 | -80.77779 | 19889 ft | 362 kts | 335° |
| 2026-04-23 02:42 | 27.43419 | -80.78800 | 19628 ft | 361 kts | 335° |
| 2026-04-23 02:42 | 27.45735 | -80.79810 | 19372 ft | 362 kts | 335° |
| 2026-04-23 02:43 | 27.48083 | -80.80832 | 19119 ft | 361 kts | 335° |
| 2026-04-23 02:43 | 27.50415 | -80.81845 | 18867 ft | 359 kts | 335° |
| 2026-04-23 02:43 | 27.52738 | -80.82853 | 18622 ft | 356 kts | 335° |
| 2026-04-23 02:43 | 27.55051 | -80.83855 | 18367 ft | 356 kts | 335° |
| 2026-04-23 02:44 | 27.57335 | -80.84912 | 18111 ft | 354 kts | 331° |
| 2026-04-23 02:44 | 27.59556 | -80.86083 | 17843 ft | 353 kts | 331° |
| 2026-04-23 02:44 | 27.61759 | -80.87240 | 17374 ft | 353 kts | 332° |
| 2026-04-23 02:44 | 27.63959 | -80.88391 | 17144 ft | 347 kts | 332° |
| 2026-04-23 02:45 | 27.66161 | -80.89546 | 16895 ft | 349 kts | 332° |
| 2026-04-23 02:45 | 27.68365 | -80.90700 | 16646 ft | 350 kts | 332° |
| 2026-04-23 02:45 | 27.70566 | -80.91854 | 16403 ft | 348 kts | 332° |
| 2026-04-23 02:45 | 27.72763 | -80.93004 | 16151 ft | 348 kts | 332° |
| 2026-04-23 02:46 | 27.74955 | -80.94152 | 15900 ft | 347 kts | 332° |
| 2026-04-23 02:46 | 27.77142 | -80.95301 | 15655 ft | 346 kts | 332° |
| 2026-04-23 02:46 | 27.79323 | -80.96448 | 15417 ft | 345 kts | 332° |
| 2026-04-23 02:46 | 27.81500 | -80.97593 | 15170 ft | 345 kts | 333° |
| 2026-04-23 02:47 | 27.83640 | -80.98719 | 14936 ft | 344 kts | 333° |
| 2026-04-23 02:47 | 27.85810 | -80.99863 | 14695 ft | 344 kts | 333° |
| 2026-04-23 02:47 | 27.87982 | -81.01007 | 14452 ft | 343 kts | 333° |
| 2026-04-23 02:47 | 27.90144 | -81.02146 | 14208 ft | 343 kts | 333° |
| 2026-04-23 02:48 | 27.92303 | -81.03284 | 13968 ft | 342 kts | 333° |
| 2026-04-23 02:48 | 27.94489 | -81.04342 | 13735 ft | 342 kts | 338° |
| 2026-04-23 02:48 | 27.96722 | -81.05275 | 13483 ft | 342 kts | 338° |
| 2026-04-23 02:48 | 27.98948 | -81.06211 | 13243 ft | 341 kts | 338° |
| 2026-04-23 02:49 | 28.01166 | -81.07150 | 13003 ft | 340 kts | 338° |
| 2026-04-23 02:49 | 28.03353 | -81.08076 | 12756 ft | 340 kts | 338° |
| 2026-04-23 02:49 | 28.05568 | -81.09014 | 12534 ft | 340 kts | 338° |
| 2026-04-23 02:49 | 28.07779 | -81.09954 | 12287 ft | 339 kts | 339° |
| 2026-04-23 02:50 | 28.09980 | -81.10898 | 12038 ft | 338 kts | 338° |
| 2026-04-23 02:50 | 28.12171 | -81.11867 | 11814 ft | 337 kts | 338° |
| 2026-04-23 02:50 | 28.14353 | -81.12837 | 11581 ft | 337 kts | 338° |
| 2026-04-23 02:50 | 28.16533 | -81.13804 | 11331 ft | 335 kts | 338° |
| 2026-04-23 02:51 | 28.18699 | -81.14763 | 11114 ft | 334 kts | 338° |
| 2026-04-23 02:51 | 28.20864 | -81.15720 | 10881 ft | 333 kts | 338° |
| 2026-04-23 02:51 | 28.22965 | -81.16649 | 10787 ft | 324 kts | 338° |
| 2026-04-23 02:51 | 28.25023 | -81.17557 | 10670 ft | 311 kts | 338° |
| 2026-04-23 02:52 | 28.27048 | -81.18296 | 10447 ft | 303 kts | 347° |
| 2026-04-23 02:52 | 28.29124 | -81.18603 | 10036 ft | 300 kts | 358° |
| 2026-04-23 02:52 | 28.31187 | -81.18617 | 9804 ft | 292 kts | 360° |
| 2026-04-23 02:52 | 28.33201 | -81.18644 | 9695 ft | 286 kts | 359° |
| 2026-04-23 02:53 | 28.35154 | -81.18680 | 9602 ft | 275 kts | 359° |
| 2026-04-23 02:53 | 28.37027 | -81.18719 | 9474 ft | 265 kts | 359° |
| 2026-04-23 02:53 | 28.38860 | -81.18757 | 9157 ft | 262 kts | 359° |
| 2026-04-23 02:53 | 28.40654 | -81.18790 | 8801 ft | 261 kts | 360° |
| 2026-04-23 02:54 | 28.42469 | -81.18810 | 8450 ft | 260 kts | 0° |
| 2026-04-23 02:54 | 28.44274 | -81.18823 | 8118 ft | 258 kts | 0° |
| 2026-04-23 02:54 | 28.46069 | -81.18836 | 7764 ft | 258 kts | 0° |
| 2026-04-23 02:54 | 28.47857 | -81.18849 | 7446 ft | 256 kts | 0° |
| 2026-04-23 02:55 | 28.49631 | -81.18861 | 7138 ft | 254 kts | 0° |
| 2026-04-23 02:55 | 28.51364 | -81.18874 | 7027 ft | 244 kts | 0° |
| 2026-04-23 02:55 | 28.53050 | -81.18885 | 6725 ft | 242 kts | 0° |
| 2026-04-23 02:55 | 28.54730 | -81.18898 | 6409 ft | 242 kts | 1° |
| 2026-04-23 02:56 | 28.56382 | -81.18901 | 6132 ft | 239 kts | 1° |
| 2026-04-23 02:56 | 28.58015 | -81.18897 | 6032 ft | 232 kts | 1° |
| 2026-04-23 02:56 | 28.59647 | -81.18891 | 5973 ft | 235 kts | 1° |
| 2026-04-23 02:56 | 28.61274 | -81.18888 | 5954 ft | 233 kts | 1° |
| 2026-04-23 02:57 | 28.62887 | -81.18883 | 5782 ft | 231 kts | 1° |
| 2026-04-23 02:57 | 28.64478 | -81.19114 | 5407 ft | 233 kts | 338° |
| 2026-04-23 02:57 | 28.65763 | -81.20215 | 5021 ft | 235 kts | 306° |
| 2026-04-23 02:57 | 28.66349 | -81.21930 | 4658 ft | 235 kts | 275° |
| 2026-04-23 02:58 | 28.66359 | -81.23774 | 4333 ft | 233 kts | 263° |
| 2026-04-23 02:58 | 28.66201 | -81.25557 | 4157 ft | 224 kts | 263° |
| 2026-04-23 02:58 | 28.65822 | -81.27207 | 4018 ft | 211 kts | 233° |
| 2026-04-23 02:58 | 28.64712 | -81.28188 | 3738 ft | 203 kts | 195° |
| 2026-04-23 02:59 | 28.63341 | -81.28461 | 3433 ft | 200 kts | 179° |
| 2026-04-23 02:59 | 28.61958 | -81.28453 | 3158 ft | 198 kts | 174° |
| 2026-04-23 02:59 | 28.60601 | -81.28425 | 3017 ft | 191 kts | 176° |
| 2026-04-23 02:59 | 28.59311 | -81.28411 | 2939 ft | 178 kts | 175° |
| 2026-04-23 03:00 | 28.58076 | -81.28398 | 2761 ft | 179 kts | 176° |
| 2026-04-23 03:00 | 28.56836 | -81.28385 | 2521 ft | 178 kts | 176° |
| 2026-04-23 03:00 | 28.55636 | -81.28374 | 2318 ft | 173 kts | 176° |
| 2026-04-23 03:00 | 28.54427 | -81.28361 | 2078 ft | 175 kts | 176° |
| 2026-04-23 03:01 | 28.53216 | -81.28350 | 1838 ft | 173 kts | 176° |
| 2026-04-23 03:01 | 28.52014 | -81.28336 | 1613 ft | 173 kts | 177° |
| 2026-04-23 03:01 | 28.50834 | -81.28325 | 1378 ft | 165 kts | 177° |
| 2026-04-23 03:01 | 28.49733 | -81.28314 | 1163 ft | 152 kts | 177° |
| 2026-04-23 03:02 | 28.48720 | -81.28304 | 978 ft | 138 kts | 177° |
| 2026-04-23 03:02 | 28.47808 | -81.28294 | 799 ft | 131 kts | 176° |
| 2026-04-23 03:02 | 28.46885 | -81.28280 | 626 ft | 132 kts | 176° |
| 2026-04-23 03:02 | 28.45973 | -81.28273 | 435 ft | 131 kts | 177° |
| 2026-04-23 03:03 | 28.45062 | -81.28265 | 279 ft | 131 kts | 177° |
| 2026-04-23 03:03 | 28.44150 | -81.28252 | 120 ft | 131 kts | 178° |
| 2026-04-23 03:03 | 28.43369 | -81.28248 | 101 ft | 85 kts | 179° |
| 2026-04-23 03:03 | 28.42929 | -81.28241 | 102 ft | 55 kts | 180° |
| 2026-04-23 03:04 | 28.42640 | -81.28249 | 105 ft | 23 kts | 197° |
| 2026-04-23 03:04 | 28.42523 | -81.28358 | 107 ft | 23 kts | 251° |
| 2026-04-23 03:04 | 28.42466 | -81.28540 | 105 ft | 26 kts | 250° |
| 2026-04-23 03:04 | 28.42404 | -81.28743 | 106 ft | 28 kts | 250° |
| 2026-04-23 03:05 | 28.42337 | -81.28955 | 107 ft | 29 kts | 251° |
| 2026-04-23 03:05 | 28.42291 | -81.29174 | 107 ft | 28 kts | 266° |
| 2026-04-23 03:05 | 28.42286 | -81.29359 | 104 ft | 22 kts | 269° |
| 2026-04-23 03:05 | 28.42284 | -81.29530 | 99 ft | 20 kts | 269° |
| 2026-04-23 03:06 | 28.42282 | -81.29699 | 99 ft | 22 kts | 269° |
| 2026-04-23 03:06 | 28.42280 | -81.29876 | 104 ft | 22 kts | 269° |
| 2026-04-23 03:06 | 28.42280 | -81.30061 | 103 ft | 25 kts | 269° |
| 2026-04-23 03:06 | 28.42277 | -81.30271 | 101 ft | 28 kts | 269° |
| 2026-04-23 03:07 | 28.42268 | -81.30480 | 104 ft | 25 kts | 266° |
| 2026-04-23 03:07 | 28.42255 | -81.30683 | 104 ft | 27 kts | 265° |
| 2026-04-23 03:07 | 28.42239 | -81.30902 | 102 ft | 28 kts | 265° |
| 2026-04-23 03:07 | 28.42245 | -81.31100 | 98 ft | 27 kts | 279° |
| 2026-04-23 03:08 | 28.42268 | -81.31312 | 100 ft | 25 kts | 271° |
| 2026-04-23 03:08 | 28.42267 | -81.31488 | 101 ft | 22 kts | 269° |
| 2026-04-23 03:08 | 28.42266 | -81.31654 | 103 ft | 21 kts | 270° |
| 2026-04-23 03:08 | 28.42271 | -81.31801 | 106 ft | 15 kts | 290° |
| 2026-04-23 03:09 | 28.42368 | -81.31830 | 107 ft | 19 kts | 1° |
| 2026-04-23 03:09 | 28.42513 | -81.31832 | 106 ft | 23 kts | 359° |
| 2026-04-23 03:09 | 28.42682 | -81.31835 | 105 ft | 25 kts | 359° |
| 2026-04-23 03:09 | 28.42871 | -81.31837 | 102 ft | 29 kts | 359° |
| 2026-04-23 03:10 | 28.43054 | -81.31838 | 102 ft | 26 kts | 359° |
| 2026-04-23 03:10 | 28.43217 | -81.31840 | 101 ft | 23 kts | 359° |
| 2026-04-23 03:10 | 28.43368 | -81.31843 | 101 ft | 17 kts | 0° |
| 2026-04-23 03:10 | 28.43475 | -81.31808 | 103 ft | 17 kts | 51° |
| 2026-04-23 03:11 | 28.43495 | -81.31691 | 100 ft | 14 kts | 123° |
| 2026-04-23 03:11 | 28.43411 | -81.31684 | 101 ft | 10 kts | 190° |
| 2026-04-23 03:11 | 28.43383 | -81.31651 | 102 ft | 6 kts | 93° |
| 2026-04-23 03:11 | 28.43383 | -81.31634 | 102 ft | 0 kts | 92° |